createdAt,value
2023-03-22T00:00:38.670Z,99922.02
2023-03-22T00:03:07.484Z,99925.89
2023-03-22T00:05:37.621Z,99925.38
2023-03-22T00:08:25.548Z,99926.85
2023-03-22T00:10:55.747Z,99930.23
2023-03-22T00:13:25.833Z,99932.05
2023-03-22T00:15:55.604Z,99935.65
2023-03-22T00:18:30.562Z,99932.91
2023-03-22T00:20:59.596Z,99931.30
2023-03-22T00:23:28.553Z,99929.87
2023-03-22T00:25:56.906Z,99933.10
2023-03-22T00:28:24.998Z,99932.29
2023-03-22T00:30:59.029Z,99928.71
2023-03-22T00:33:29.681Z,99930.80
2023-03-22T00:35:59.636Z,99927.23
2023-03-22T00:38:41.960Z,99927.44
2023-03-22T00:41:18.775Z,99931.23
2023-03-22T00:43:48.546Z,99933.75
2023-03-22T00:46:19.321Z,99934.14
2023-03-22T00:48:48.739Z,99932.31
2023-03-22T00:51:16.926Z,99929.29
2023-03-22T00:53:45.461Z,99932.55
2023-03-22T00:56:15.915Z,99935.98
2023-03-22T00:58:48.329Z,99936.52
2023-03-22T01:01:17.551Z,99936.11
2023-03-22T01:03:50.785Z,99932.74
2023-03-22T01:06:19.084Z,99928.03
2023-03-22T01:08:50.994Z,99929.34
2023-03-22T01:11:21.843Z,99935.45
2023-03-22T01:13:50.480Z,99935.48
2023-03-22T01:16:18.969Z,99938.02
2023-03-22T01:18:47.155Z,99935.23
2023-03-22T01:21:15.468Z,99938.09
2023-03-22T01:23:43.576Z,99934.72
2023-03-22T01:26:11.745Z,99937.20
2023-03-22T01:28:40.755Z,99936.38
2023-03-22T01:31:08.856Z,99936.41
2023-03-22T01:33:37.930Z,99938.78
2023-03-22T01:36:06.958Z,99941.54
2023-03-22T01:38:35.797Z,99947.63
2023-03-22T01:41:04.162Z,99954.59
2023-03-22T01:43:35.402Z,99954.43
2023-03-22T01:46:04.450Z,99954.35
2023-03-22T01:48:42.359Z,99959.25
2023-03-22T01:51:13.770Z,99958.44
2023-03-22T01:54:07.031Z,99956.33
2023-03-22T01:56:36.860Z,99958.75
2023-03-22T01:59:05.581Z,99960.14
2023-03-22T02:01:52.907Z,99963.77
2023-03-22T02:04:23.504Z,99965.52
2023-03-22T02:06:54.153Z,99966.77
2023-03-22T02:09:22.395Z,99966.66
2023-03-22T02:11:59.653Z,99970.02
2023-03-22T02:14:37.619Z,99971.02
2023-03-22T02:18:57.882Z,99987.86
2023-03-22T02:21:52.452Z,99988.56
2023-03-22T02:24:49.613Z,99982.76
2023-03-22T02:27:20.765Z,99980.49
2023-03-22T02:29:56.545Z,99977.23
2023-03-22T02:32:52.579Z,99980.16
2023-03-22T02:36:07.449Z,99980.86
2023-03-22T02:39:16.044Z,99980.79
2023-03-22T02:42:15.859Z,99983.55
2023-03-22T02:44:50.633Z,99986.48
2023-03-22T02:47:49.854Z,99985.98
2023-03-22T02:50:46.664Z,99987.81
2023-03-22T02:53:21.151Z,99990.43
2023-03-22T02:55:54.254Z,99992.86
2023-03-22T02:58:38.162Z,99996.46
2023-03-22T03:01:09.475Z,99999.40
2023-03-22T03:03:37.799Z,100004.02
2023-03-22T03:06:10.085Z,100006.15
2023-03-22T03:08:38.392Z,100010.14
2023-03-22T03:11:10.945Z,100013.89
2023-03-22T03:13:40.476Z,100013.52
2023-03-22T03:16:13.280Z,100015.74
2023-03-22T03:18:55.123Z,100018.20
2023-03-22T03:21:45.430Z,100021.67
2023-03-22T03:24:28.655Z,100020.15
2023-03-22T03:27:04.572Z,100022.07
2023-03-22T03:29:40.358Z,100026.05
2023-03-22T03:32:31.678Z,100026.31
2023-03-22T03:35:22.427Z,100027.91
2023-03-22T03:38:21.772Z,100034.98
2023-03-22T03:40:53.838Z,100030.61
2023-03-22T03:43:23.275Z,100034.45
2023-03-22T03:45:53.390Z,100033.72
2023-03-22T03:48:23.576Z,100031.34
2023-03-22T03:50:52.537Z,100031.81
2023-03-22T03:53:20.923Z,100033.05
2023-03-22T03:55:49.096Z,100036.98
2023-03-22T03:58:17.710Z,100039.64
2023-03-22T04:00:47.010Z,100034.17
2023-03-22T04:03:21.025Z,100035.45
2023-03-22T04:06:18.386Z,100034.12
2023-03-22T04:08:53.905Z,100033.79
2023-03-22T04:11:27.491Z,100038.06
2023-03-22T04:13:58.080Z,100037.77
2023-03-22T04:16:26.499Z,100039.23
2023-03-22T04:18:55.393Z,100037.71
2023-03-22T04:21:23.828Z,100039.09
2023-03-22T04:23:59.462Z,100039.37
2023-03-22T04:26:29.490Z,100043.60
2023-03-22T04:29:18.377Z,100047.91
2023-03-22T04:31:56.325Z,100049.48
2023-03-22T04:34:29.843Z,100046.27
2023-03-22T04:37:03.858Z,100049.02
2023-03-22T04:39:34.696Z,100052.64
2023-03-22T04:42:21.719Z,100053.00
2023-03-22T04:44:53.664Z,100058.12
2023-03-22T04:47:22.345Z,100062.88
2023-03-22T04:49:50.418Z,100061.02
2023-03-22T04:52:19.038Z,100060.10
2023-03-22T04:54:52.683Z,100061.05
2023-03-22T04:57:21.419Z,100067.61
2023-03-22T04:59:50.078Z,100069.80
2023-03-22T05:02:19.070Z,100071.27
2023-03-22T05:04:49.031Z,100071.99
2023-03-22T05:07:29.926Z,100075.45
2023-03-22T05:09:59.768Z,100077.11
2023-03-22T05:12:28.573Z,100082.47
2023-03-22T05:15:14.397Z,100080.38
2023-03-22T05:17:43.880Z,100086.59
2023-03-22T05:20:11.917Z,100086.96
2023-03-22T05:22:42.253Z,100089.67
2023-03-22T05:25:11.885Z,100091.94
2023-03-22T05:27:42.889Z,100095.33
2023-03-22T05:30:31.240Z,100096.58
2023-03-22T05:33:04.539Z,100097.77
2023-03-22T05:35:38.559Z,100095.89
2023-03-22T05:38:07.979Z,100097.46
2023-03-22T05:40:39.934Z,100096.46
2023-03-22T05:43:08.390Z,100094.78
2023-03-22T05:45:40.310Z,100091.70
2023-03-22T05:48:15.731Z,100092.04
2023-03-22T05:50:44.216Z,100095.32
2023-03-22T05:53:13.663Z,100099.52
2023-03-22T05:55:50.101Z,100103.73
2023-03-22T05:58:24.295Z,100105.45
2023-03-22T06:00:52.560Z,100109.45
2023-03-22T06:03:27.426Z,100111.02
2023-03-22T06:06:13.843Z,100119.54
2023-03-22T06:08:47.554Z,100121.57
2023-03-22T06:11:23.160Z,100128.45
2023-03-22T06:13:51.485Z,100131.33
2023-03-22T06:16:20.518Z,100129.38
2023-03-22T06:18:49.386Z,100133.89
2023-03-22T06:21:18.029Z,100133.42
2023-03-22T06:23:46.840Z,100137.61
2023-03-22T06:26:19.299Z,100142.50
2023-03-22T06:28:47.838Z,100144.54
2023-03-22T06:31:16.693Z,100145.96
2023-03-22T06:33:57.940Z,100144.35
2023-03-22T06:36:30.371Z,100142.91
2023-03-22T06:39:14.068Z,100141.28
2023-03-22T06:41:45.949Z,100138.71
2023-03-22T06:44:14.442Z,100137.48
2023-03-22T06:46:51.352Z,100137.80
2023-03-22T06:49:44.183Z,100144.82
2023-03-22T06:52:16.878Z,100146.60
2023-03-22T06:54:45.412Z,100151.40
2023-03-22T06:57:13.428Z,100152.20
2023-03-22T06:59:41.566Z,100146.27
2023-03-22T07:02:13.789Z,100140.12
2023-03-22T07:04:46.665Z,100135.69
2023-03-22T07:07:15.999Z,100138.54
2023-03-22T07:09:44.018Z,100139.45
2023-03-22T07:12:13.492Z,100139.05
2023-03-22T07:14:42.414Z,100138.63
2023-03-22T07:17:32.520Z,100145.70
2023-03-22T07:20:02.250Z,100145.37
2023-03-22T07:22:31.364Z,100146.95
2023-03-22T07:25:01.869Z,100148.73
2023-03-22T07:27:50.858Z,100149.67
2023-03-22T07:30:21.305Z,100155.24
2023-03-22T07:32:50.071Z,100156.46
2023-03-22T07:35:19.103Z,100153.50
2023-03-22T07:37:48.870Z,100153.86
2023-03-22T07:40:26.179Z,100147.39
2023-03-22T07:42:56.273Z,100144.10
2023-03-22T07:45:43.156Z,100142.85
2023-03-22T07:48:49.855Z,100143.24
2023-03-22T07:51:38.200Z,100145.14
2023-03-22T07:54:07.805Z,100138.05
2023-03-22T07:56:36.546Z,100137.45
2023-03-22T07:59:05.327Z,100140.10
2023-03-22T08:01:33.886Z,100140.25
2023-03-22T08:04:08.433Z,100138.81
2023-03-22T08:06:58.762Z,100135.92
2023-03-22T08:09:28.919Z,100140.42
2023-03-22T08:11:58.400Z,100142.31
2023-03-22T08:14:36.049Z,100142.08
2023-03-22T08:17:07.831Z,100145.85
2023-03-22T08:19:36.961Z,100151.61
2023-03-22T08:22:08.118Z,100149.26
2023-03-22T08:24:59.428Z,100148.55
2023-03-22T08:27:31.767Z,100150.70
2023-03-22T08:30:01.091Z,100149.77
2023-03-22T08:32:29.418Z,100149.78
2023-03-22T08:34:58.912Z,100148.66
2023-03-22T08:37:27.117Z,100153.37
2023-03-22T08:39:55.424Z,100157.77
2023-03-22T08:42:38.517Z,100154.85
2023-03-22T08:45:10.385Z,100152.33
2023-03-22T08:47:44.483Z,100148.74
2023-03-22T08:50:13.453Z,100151.30
2023-03-22T08:52:49.053Z,100154.46
2023-03-22T08:55:24.948Z,100151.89
2023-03-22T08:58:22.102Z,100148.89
2023-03-22T09:01:29.066Z,100145.05
2023-03-22T09:04:04.123Z,100145.84
2023-03-22T09:06:32.562Z,100145.00
2023-03-22T09:09:03.825Z,100141.52
2023-03-22T09:11:35.482Z,100141.08
2023-03-22T09:14:03.660Z,100145.05
2023-03-22T09:16:39.249Z,100144.73
2023-03-22T09:19:07.999Z,100146.09
2023-03-22T09:21:36.491Z,100149.91
2023-03-22T09:24:21.728Z,100151.83
2023-03-22T09:26:53.975Z,100156.31
2023-03-22T09:29:22.450Z,100155.98
2023-03-22T09:31:53.751Z,100153.54
2023-03-22T09:34:28.926Z,100150.96
2023-03-22T09:37:02.515Z,100150.95
2023-03-22T09:39:38.570Z,100152.31
2023-03-22T09:42:10.994Z,100154.18
2023-03-22T09:44:41.706Z,100156.52
2023-03-22T09:47:13.947Z,100155.12
2023-03-22T09:49:53.823Z,100154.63
2023-03-22T09:52:22.762Z,100155.23
2023-03-22T09:54:52.851Z,100156.62
2023-03-22T09:57:36.561Z,100155.52
2023-03-22T10:00:27.488Z,100157.77
2023-03-22T10:02:57.316Z,100151.48
2023-03-22T10:05:27.703Z,100152.66
2023-03-22T10:08:17.820Z,100152.66
2023-03-22T10:10:46.996Z,100153.40
2023-03-22T10:13:33.211Z,100153.48
2023-03-22T10:16:06.939Z,100152.41
2023-03-22T10:18:40.636Z,100151.79
2023-03-22T10:21:15.863Z,100155.99
2023-03-22T10:23:44.213Z,100154.92
2023-03-22T10:26:29.475Z,100158.80
2023-03-22T10:29:04.625Z,100156.58
2023-03-22T10:31:33.139Z,100153.08
2023-03-22T10:34:33.691Z,100151.95
2023-03-22T10:37:02.297Z,100147.00
2023-03-22T10:39:34.096Z,100146.14
2023-03-22T10:42:08.136Z,100149.74
2023-03-22T10:44:48.224Z,100148.05
2023-03-22T10:47:18.398Z,100151.20
2023-03-22T10:49:54.626Z,100147.08
2023-03-22T10:53:05.940Z,100147.09
2023-03-22T10:55:39.716Z,100143.58
2023-03-22T10:58:22.365Z,100147.17
2023-03-22T11:00:53.158Z,100146.00
2023-03-22T11:03:36.997Z,100144.77
2023-03-22T11:06:13.585Z,100144.94
2023-03-22T11:08:43.696Z,100142.81
2023-03-22T11:11:32.650Z,100142.63
2023-03-22T11:14:06.105Z,100144.48
2023-03-22T11:16:46.567Z,100141.81
2023-03-22T11:19:17.452Z,100140.10
2023-03-22T11:21:46.881Z,100137.46
2023-03-22T11:24:15.747Z,100140.27
2023-03-22T11:27:03.368Z,100143.23
2023-03-22T11:29:46.488Z,100143.05
2023-03-22T11:32:37.311Z,100141.05
2023-03-22T11:35:18.583Z,100137.63
2023-03-22T11:37:48.746Z,100139.94
2023-03-22T11:40:21.851Z,100137.30
2023-03-22T11:42:54.051Z,100138.63
2023-03-22T11:45:30.864Z,100135.36
2023-03-22T11:48:06.845Z,100136.45
2023-03-22T11:50:36.891Z,100133.69
2023-03-22T11:53:09.064Z,100131.77
2023-03-22T11:55:37.961Z,100129.16
2023-03-22T11:58:27.154Z,100129.59
2023-03-22T12:00:58.880Z,100122.14
2023-03-22T12:03:31.465Z,100121.56
2023-03-22T12:06:04.620Z,100118.04
2023-03-22T12:08:42.822Z,100114.27
2023-03-22T12:11:33.710Z,100111.42
2023-03-22T12:14:23.836Z,100111.98
2023-03-22T12:16:59.983Z,100113.67
2023-03-22T12:19:48.778Z,100111.17
2023-03-22T12:22:18.878Z,100114.95
2023-03-22T12:24:46.845Z,100114.15
2023-03-22T12:27:30.877Z,100109.69
2023-03-22T12:30:01.494Z,100105.45
2023-03-22T12:32:36.265Z,100108.56
2023-03-22T12:35:19.643Z,100109.52
2023-03-22T12:37:50.115Z,100109.63
2023-03-22T12:40:24.562Z,100106.08
2023-03-22T12:43:00.263Z,100102.55
2023-03-22T12:45:39.589Z,100102.10
2023-03-22T12:48:15.560Z,100094.29
2023-03-22T12:50:58.421Z,100095.04
2023-03-22T12:53:28.384Z,100089.77
2023-03-22T12:55:56.259Z,100091.38
2023-03-22T12:58:24.950Z,100092.59
2023-03-22T13:00:56.133Z,100092.55
2023-03-22T13:03:29.083Z,100093.30
2023-03-22T13:06:03.551Z,100089.63
2023-03-22T13:09:01.312Z,100084.97
2023-03-22T13:11:32.046Z,100085.57
2023-03-22T13:14:00.201Z,100085.35
2023-03-22T13:16:49.239Z,100085.95
2023-03-22T13:19:52.201Z,100084.23
2023-03-22T13:22:28.527Z,100079.75
2023-03-22T13:24:59.259Z,100077.67
2023-03-22T13:27:38.290Z,100076.25
2023-03-22T13:30:22.018Z,100073.34
2023-03-22T13:33:04.492Z,100074.95
2023-03-22T13:35:51.325Z,100075.95
2023-03-22T13:38:19.674Z,100075.98
2023-03-22T13:40:52.223Z,100076.23
2023-03-22T13:43:24.453Z,100074.48
2023-03-22T13:46:18.091Z,100073.09
2023-03-22T13:48:47.283Z,100067.98
2023-03-22T13:51:23.586Z,100068.80
2023-03-22T13:54:09.911Z,100073.59
2023-03-22T13:56:44.715Z,100070.61
2023-03-22T13:59:33.670Z,100071.87
2023-03-22T14:02:28.772Z,100071.96
2023-03-22T14:05:16.457Z,100071.02
2023-03-22T14:07:50.830Z,100070.21
2023-03-22T14:10:24.801Z,100069.45
2023-03-22T14:13:16.578Z,100068.16
2023-03-22T14:15:49.985Z,100068.35
2023-03-22T14:18:34.285Z,100069.45
2023-03-22T14:21:07.326Z,100068.22
